Time;durP1;ratioP1;P1;durP2;ratioP2;P2;SDS_P1;SDS_P2;PMS_P1;PMS_P2;Temp;Humidity;BMP_temperature;BMP_pressure;BME280_temperature;BME280_humidity;BME280_pressure;Samples;Min_cycle;Max_cycle;Signal;HPM_P1;HPM_P2
2023/09/07 00:01:38;;;;;;;16.05;8.38;;;;;;;;;;6172262;23;20017;-42
2023/09/07 00:04:07;;;;;;;22.50;10.02;;;;;;;;;;6188659;23;20027;-44
2023/09/07 00:06:36;;;;;;;21.40;9.57;;;;;;;;;;6177627;23;20114;-43
2023/09/07 00:09:06;;;;;;;18.97;9.77;;;;;;;;;;6181277;23;20063;-43
2023/09/07 00:11:34;;;;;;;19.73;10.20;;;;;;;;;;6189075;23;20321;-42
2023/09/07 00:14:02;;;;;;;20.73;9.32;;;;;;;;;;6181356;23;20062;-42
2023/09/07 00:16:33;;;;;;;17.17;9.57;;;;;;;;;;6189453;23;20013;-42
2023/09/07 00:19:02;;;;;;;20.33;10.60;;;;;;;;;;6177225;23;20590;-42
2023/09/07 00:21:31;;;;;;;20.53;10.43;;;;;;;;;;6187289;23;20444;-42
2023/09/07 00:23:58;;;;;;;17.52;9.60;;;;;;;;;;6185658;23;20020;-42
2023/09/07 00:26:28;;;;;;;15.73;10.30;;;;;;;;;;6195112;23;20351;-44
2023/09/07 00:28:58;;;;;;;21.00;10.55;;;;;;;;;;6179641;23;20356;-44
2023/09/07 00:31:26;;;;;;;18.88;9.48;;;;;;;;;;6187520;23;20019;-43
2023/09/07 00:33:55;;;;;;;21.30;10.23;;;;;;;;;;6178596;23;20041;-42
2023/09/07 00:36:23;;;;;;;17.85;10.20;;;;;;;;;;6191125;23;20028;-42
2023/09/07 00:38:51;;;;;;;17.63;10.00;;;;;;;;;;6173577;23;20016;-43
2023/09/07 00:41:19;;;;;;;17.80;10.20;;;;;;;;;;6190749;23;20017;-43
2023/09/07 00:43:48;;;;;;;17.45;9.20;;;;;;;;;;6178485;23;20311;-48
2023/09/07 00:46:16;;;;;;;20.10;9.60;;;;;;;;;;6186325;23;20423;-46
2023/09/07 00:48:45;;;;;;;17.05;9.50;;;;;;;;;;6187412;23;20040;-44
2023/09/07 00:51:13;;;;;;;15.77;9.68;;;;;;;;;;6181767;23;20016;-45
2023/09/07 00:53:42;;;;;;;21.40;9.63;;;;;;;;;;6185678;23;20054;-44
2023/09/07 00:56:10;;;;;;;19.63;10.15;;;;;;;;;;6186783;23;20400;-47
2023/09/07 00:58:38;;;;;;;22.43;10.70;;;;;;;;;;6182109;23;20035;-45
2023/09/07 01:01:08;;;;;;;15.48;9.80;;;;;;;;;;6182327;23;20016;-42
2023/09/07 01:03:37;;;;;;;15.65;10.20;;;;;;;;;;6180493;23;20047;-42
2023/09/07 01:06:08;;;;;;;17.95;10.32;;;;;;;;;;6180721;23;20030;-44
2023/09/07 01:08:39;;;;;;;16.95;10.20;;;;;;;;;;6190415;23;20020;-43
2023/09/07 01:11:13;;;;;;;19.63;10.33;;;;;;;;;;6184892;23;20023;-43
2023/09/07 01:13:41;;;;;;;15.18;9.65;;;;;;;;;;6185817;23;20021;-45
2023/09/07 01:16:11;;;;;;;22.13;9.60;;;;;;;;;;6179665;23;20466;-42
2023/09/07 01:18:39;;;;;;;19.40;9.65;;;;;;;;;;6185662;23;20098;-43
2023/09/07 01:21:12;;;;;;;20.67;10.20;;;;;;;;;;6189192;23;20095;-44
2023/09/07 01:23:42;;;;;;;17.90;10.30;;;;;;;;;;6178187;23;20032;-43
2023/09/07 01:26:11;;;;;;;18.33;10.25;;;;;;;;;;6194915;23;20039;-46
2023/09/07 01:28:39;;;;;;;16.30;10.73;;;;;;;;;;6182759;23;20063;-42
2023/09/07 01:31:06;;;;;;;15.43;10.13;;;;;;;;;;6176446;23;20028;-43
2023/09/07 01:33:34;;;;;;;21.92;11.23;;;;;;;;;;6186793;23;20016;-42
2023/09/07 01:36:02;;;;;;;17.90;10.03;;;;;;;;;;6176154;23;20023;-44
2023/09/07 01:38:30;;;;;;;17.05;11.43;;;;;;;;;;6184507;23;20012;-42
2023/09/07 01:41:00;;;;;;;19.83;11.38;;;;;;;;;;6182668;23;20024;-44
2023/09/07 01:43:29;;;;;;;22.13;12.13;;;;;;;;;;6181514;23;20026;-43
2023/09/07 01:45:57;;;;;;;19.17;11.80;;;;;;;;;;6185592;23;20013;-42
2023/09/07 01:48:25;;;;;;;18.03;12.37;;;;;;;;;;6189242;23;20016;-42
2023/09/07 01:50:53;;;;;;;20.25;11.80;;;;;;;;;;6196088;23;20067;-44
2023/09/07 01:53:21;;;;;;;18.98;12.35;;;;;;;;;;6178958;23;20027;-44
2023/09/07 01:55:49;;;;;;;20.00;12.00;;;;;;;;;;6192280;23;20023;-42
2023/09/07 01:58:18;;;;;;;19.63;11.57;;;;;;;;;;6174807;23;20043;-42
2023/09/07 02:00:46;;;;;;;19.30;11.10;;;;;;;;;;6191885;23;20020;-44
2023/09/07 02:03:16;;;;;;;17.67;11.35;;;;;;;;;;6189174;23;20362;-42
2023/09/07 02:05:45;;;;;;;20.58;11.70;;;;;;;;;;6193457;23;20023;-42
2023/09/07 02:08:13;;;;;;;21.17;11.45;;;;;;;;;;6192532;23;20083;-42
2023/09/07 02:10:42;;;;;;;18.25;12.20;;;;;;;;;;6193104;23;20070;-42
2023/09/07 02:13:11;;;;;;;18.33;12.17;;;;;;;;;;6196487;23;20116;-42
2023/09/07 02:15:40;;;;;;;23.45;12.68;;;;;;;;;;6188349;23;20020;-43
2023/09/07 02:18:08;;;;;;;17.83;11.68;;;;;;;;;;6194720;23;20448;-42
2023/09/07 02:20:36;;;;;;;20.95;12.13;;;;;;;;;;6184157;23;20074;-42
2023/09/07 02:23:04;;;;;;;18.70;12.40;;;;;;;;;;6200653;23;20411;-42
2023/09/07 02:25:32;;;;;;;21.03;12.83;;;;;;;;;;6187812;23;20020;-46
2023/09/07 02:28:00;;;;;;;20.85;12.98;;;;;;;;;;6190495;23;20034;-42
2023/09/07 02:30:27;;;;;;;21.52;12.88;;;;;;;;;;6191707;23;20020;-42
2023/09/07 02:32:57;;;;;;;21.45;13.98;;;;;;;;;;6190381;23;20019;-43
2023/09/07 02:35:25;;;;;;;21.50;13.27;;;;;;;;;;6188195;23;20013;-43
2023/09/07 02:37:53;;;;;;;20.60;13.20;;;;;;;;;;6194766;23;20013;-42
2023/09/07 02:40:21;;;;;;;22.80;13.63;;;;;;;;;;6184597;23;20024;-43
2023/09/07 02:42:49;;;;;;;21.20;13.77;;;;;;;;;;6196838;23;20032;-43
2023/09/07 02:45:17;;;;;;;20.58;13.80;;;;;;;;;;6189122;23;20016;-42
2023/09/07 02:47:46;;;;;;;18.80;12.82;;;;;;;;;;6192826;23;20475;-42
2023/09/07 02:50:17;;;;;;;23.97;13.00;;;;;;;;;;6182917;23;20362;-44
2023/09/07 02:52:45;;;;;;;19.52;13.45;;;;;;;;;;6194338;23;20070;-43
2023/09/07 02:55:13;;;;;;;22.38;13.65;;;;;;;;;;6185407;23;20027;-43
2023/09/07 02:57:41;;;;;;;24.80;13.32;;;;;;;;;;6172783;23;20027;-42
2023/09/07 03:00:10;;;;;;;20.63;13.95;;;;;;;;;;6190427;23;20431;-45
2023/09/07 03:02:38;;;;;;;19.53;14.00;;;;;;;;;;6192167;23;20012;-47
2023/09/07 03:05:06;;;;;;;18.13;13.18;;;;;;;;;;6189843;23;20024;-43
2023/09/07 03:07:36;;;;;;;22.85;14.93;;;;;;;;;;6192796;23;20188;-45
2023/09/07 03:10:04;;;;;;;19.42;13.32;;;;;;;;;;6190231;23;20019;-43
2023/09/07 03:12:32;;;;;;;21.40;14.63;;;;;;;;;;6186995;23;20021;-43
2023/09/07 03:15:03;;;;;;;23.23;14.03;;;;;;;;;;6196752;23;20017;-42
2023/09/07 03:17:31;;;;;;;21.25;14.25;;;;;;;;;;6181119;23;20395;-44
2023/09/07 03:20:13;;;;;;;24.52;14.80;;;;;;;;;;6161386;23;20447;-45
2023/09/07 03:22:43;;;;;;;23.60;14.73;;;;;;;;;;6197171;23;20025;-42
2023/09/07 03:25:11;;;;;;;21.58;14.13;;;;;;;;;;6166857;23;20248;-43
2023/09/07 03:27:40;;;;;;;22.73;14.30;;;;;;;;;;6192169;23;20021;-43
2023/09/07 03:30:08;;;;;;;20.25;14.13;;;;;;;;;;6193144;23;20533;-42
2023/09/07 03:32:36;;;;;;;20.58;12.90;;;;;;;;;;6190274;23;20055;-43
2023/09/07 03:35:06;;;;;;;21.65;13.32;;;;;;;;;;6194925;23;20039;-42
2023/09/07 03:37:34;;;;;;;19.80;13.52;;;;;;;;;;6190864;23;20027;-42
2023/09/07 03:40:05;;;;;;;21.07;14.03;;;;;;;;;;6184189;23;20023;-42
2023/09/07 03:42:33;;;;;;;20.08;14.13;;;;;;;;;;6192577;23;20047;-42
2023/09/07 03:45:03;;;;;;;23.33;14.60;;;;;;;;;;6190973;23;20032;-42
2023/09/07 03:47:34;;;;;;;24.00;15.75;;;;;;;;;;6189136;23;20082;-42
2023/09/07 03:50:02;;;;;;;22.73;15.50;;;;;;;;;;6183556;23;20075;-43
2023/09/07 03:52:30;;;;;;;25.50;16.10;;;;;;;;;;6163432;23;20027;-43
2023/09/07 03:54:58;;;;;;;22.77;15.40;;;;;;;;;;6194802;23;20012;-42
2023/09/07 03:57:27;;;;;;;24.77;16.67;;;;;;;;;;6189714;23;20470;-42
2023/09/07 03:59:55;;;;;;;22.95;16.27;;;;;;;;;;6189705;23;20020;-42
2023/09/07 04:02:24;;;;;;;26.33;15.85;;;;;;;;;;6188039;23;20056;-43
2023/09/07 04:04:53;;;;;;;23.07;15.60;;;;;;;;;;6186277;23;20016;-43
2023/09/07 04:07:21;;;;;;;24.90;16.00;;;;;;;;;;6190065;23;20123;-42
2023/09/07 04:09:51;;;;;;;26.05;16.10;;;;;;;;;;6194449;23;20075;-44
2023/09/07 04:12:18;;;;;;;22.20;15.15;;;;;;;;;;6177242;23;20021;-42
2023/09/07 04:14:47;;;;;;;20.35;14.40;;;;;;;;;;6193167;23;20050;-42
2023/09/07 04:17:16;;;;;;;25.57;16.03;;;;;;;;;;6188400;23;20024;-42
2023/09/07 04:19:44;;;;;;;34.25;16.27;;;;;;;;;;6190605;23;20017;-43
2023/09/07 04:22:11;;;;;;;22.77;15.38;;;;;;;;;;6184552;23;20212;-44
2023/09/07 04:24:39;;;;;;;25.73;16.50;;;;;;;;;;6193563;23;20016;-44
2023/09/07 04:27:07;;;;;;;25.40;17.52;;;;;;;;;;6192487;23;20060;-44
2023/09/07 04:29:35;;;;;;;23.43;17.37;;;;;;;;;;6186263;23;20019;-44
2023/09/07 04:32:05;;;;;;;24.42;16.95;;;;;;;;;;6194739;23;20071;-44
2023/09/07 04:34:32;;;;;;;26.25;16.80;;;;;;;;;;6190191;23;20019;-43
2023/09/07 04:37:05;;;;;;;24.15;16.50;;;;;;;;;;6180334;23;20467;-42
2023/09/07 04:39:33;;;;;;;24.85;17.35;;;;;;;;;;6185594;23;20043;-44
2023/09/07 04:42:01;;;;;;;26.43;17.43;;;;;;;;;;6193735;23;20074;-45
2023/09/07 04:44:29;;;;;;;29.00;18.92;;;;;;;;;;6180014;23;20017;-47
2023/09/07 04:46:58;;;;;;;29.42;16.98;;;;;;;;;;6193309;23;20274;-42
2023/09/07 04:49:27;;;;;;;25.23;17.88;;;;;;;;;;6179027;23;20452;-44
2023/09/07 04:51:55;;;;;;;26.00;17.60;;;;;;;;;;6187184;23;20016;-43
2023/09/07 04:54:23;;;;;;;24.53;17.80;;;;;;;;;;6180420;23;20091;-44
2023/09/07 04:56:50;;;;;;;30.10;19.25;;;;;;;;;;6188657;23;20344;-43
2023/09/07 04:59:18;;;;;;;27.90;18.70;;;;;;;;;;6180894;23;20394;-43
2023/09/07 05:01:46;;;;;;;28.52;19.45;;;;;;;;;;6188949;23;20012;-49
2023/09/07 05:04:15;;;;;;;28.27;19.50;;;;;;;;;;6183876;23;20032;-44
2023/09/07 05:06:44;;;;;;;28.17;19.77;;;;;;;;;;6182918;23;20025;-44
2023/09/07 05:09:12;;;;;;;31.45;19.55;;;;;;;;;;6176150;23;20021;-42
2023/09/07 05:11:40;;;;;;;26.63;18.58;;;;;;;;;;6182177;23;20020;-42
2023/09/07 05:14:07;;;;;;;31.80;19.42;;;;;;;;;;6180860;23;20464;-42
2023/09/07 05:16:35;;;;;;;27.88;19.48;;;;;;;;;;6187115;23;20027;-45
2023/09/07 05:19:03;;;;;;;29.43;19.77;;;;;;;;;;6180773;23;20008;-42
2023/09/07 05:21:32;;;;;;;28.02;19.85;;;;;;;;;;6188707;23;20017;-44
2023/09/07 05:24:01;;;;;;;27.55;19.48;;;;;;;;;;6181150;23;20024;-44
2023/09/07 05:26:29;;;;;;;31.83;18.92;;;;;;;;;;6188269;23;20017;-44
2023/09/07 05:28:57;;;;;;;29.73;19.30;;;;;;;;;;6186217;23;20039;-42
2023/09/07 05:31:27;;;;;;;28.57;19.43;;;;;;;;;;6183569;23;20517;-42
2023/09/07 05:33:56;;;;;;;28.98;19.88;;;;;;;;;;6188290;23;20070;-42
2023/09/07 05:36:23;;;;;;;27.23;19.15;;;;;;;;;;6179570;23;20017;-44
2023/09/07 05:38:51;;;;;;;30.80;19.75;;;;;;;;;;6188099;23;20064;-44
2023/09/07 05:41:20;;;;;;;28.90;20.45;;;;;;;;;;6179191;23;20027;-42
2023/09/07 05:43:49;;;;;;;30.73;20.13;;;;;;;;;;6188256;23;20492;-42
2023/09/07 05:46:16;;;;;;;28.33;19.20;;;;;;;;;;6176539;23;20336;-43
2023/09/07 05:48:44;;;;;;;29.30;21.35;;;;;;;;;;6185118;23;20096;-42
2023/09/07 05:51:12;;;;;;;35.00;21.67;;;;;;;;;;6181544;23;20076;-43
2023/09/07 05:53:40;;;;;;;34.38;21.42;;;;;;;;;;6182081;23;20055;-44
2023/09/07 05:56:08;;;;;;;28.47;19.97;;;;;;;;;;6179896;23;20202;-42
2023/09/07 05:58:37;;;;;;;32.45;20.85;;;;;;;;;;6182806;23;20009;-42
2023/09/07 06:01:06;;;;;;;32.78;21.30;;;;;;;;;;6183148;23;20452;-44
2023/09/07 06:03:34;;;;;;;34.17;22.55;;;;;;;;;;6178449;23;20104;-43
2023/09/07 06:06:03;;;;;;;32.00;21.60;;;;;;;;;;6182501;23;20020;-42
2023/09/07 06:08:33;;;;;;;35.50;22.67;;;;;;;;;;6180844;23;20384;-43
2023/09/07 06:11:01;;;;;;;34.90;21.75;;;;;;;;;;6183112;23;20489;-42
2023/09/07 06:13:28;;;;;;;33.10;21.83;;;;;;;;;;6185951;23;20379;-42
2023/09/07 06:16:00;;;;;;;31.63;21.17;;;;;;;;;;6182181;23;20412;-42
2023/09/07 06:18:28;;;;;;;36.00;23.33;;;;;;;;;;6190309;23;20092;-42
2023/09/07 06:20:58;;;;;;;30.80;21.27;;;;;;;;;;6181281;23;20420;-42
2023/09/07 06:23:25;;;;;;;32.58;21.63;;;;;;;;;;6187103;23;20013;-42
2023/09/07 06:25:53;;;;;;;31.95;22.25;;;;;;;;;;6178314;23;20099;-43
2023/09/07 06:28:21;;;;;;;29.55;21.33;;;;;;;;;;6186774;23;20094;-42
2023/09/07 06:30:48;;;;;;;32.30;22.00;;;;;;;;;;6176849;23;20016;-42
2023/09/07 06:33:18;;;;;;;30.13;19.80;;;;;;;;;;6173581;23;20336;-42
2023/09/07 06:35:46;;;;;;;31.58;20.48;;;;;;;;;;6155020;23;20017;-43
2023/09/07 06:38:14;;;;;;;32.33;21.30;;;;;;;;;;6173096;23;20119;-42
2023/09/07 06:40:42;;;;;;;32.58;21.48;;;;;;;;;;6180383;23;20025;-48
2023/09/07 06:43:09;;;;;;;29.80;21.75;;;;;;;;;;6177740;23;20017;-43
2023/09/07 06:45:37;;;;;;;29.77;21.40;;;;;;;;;;6188403;23;20041;-45
2023/09/07 06:48:05;;;;;;;33.90;20.92;;;;;;;;;;6185519;23;20021;-46
2023/09/07 06:50:34;;;;;;;30.30;22.05;;;;;;;;;;6182992;23;20100;-43
2023/09/07 06:53:03;;;;;;;28.08;20.90;;;;;;;;;;6183548;23;20016;-44
2023/09/07 06:55:30;;;;;;;31.85;21.42;;;;;;;;;;6135280;23;20195;-43
2023/09/07 06:58:00;;;;;;;36.27;21.83;;;;;;;;;;6184529;23;20012;-43
2023/09/07 07:00:28;;;;;;;33.67;21.95;;;;;;;;;;6177488;23;20352;-42
2023/09/07 07:02:56;;;;;;;33.22;21.15;;;;;;;;;;6188146;23;20104;-43
2023/09/07 07:05:28;;;;;;;31.65;22.05;;;;;;;;;;6175633;23;20100;-46
2023/09/07 07:07:58;;;;;;;31.88;21.58;;;;;;;;;;6173241;23;20023;-44
2023/09/07 07:10:25;;;;;;;34.13;21.27;;;;;;;;;;6179422;23;20020;-45
2023/09/07 07:12:53;;;;;;;34.67;22.20;;;;;;;;;;6186389;23;20316;-44
2023/09/07 07:15:21;;;;;;;31.42;21.50;;;;;;;;;;6179504;23;20025;-47
2023/09/07 07:17:48;;;;;;;33.72;22.58;;;;;;;;;;6191281;23;20020;-44
2023/09/07 07:20:17;;;;;;;29.70;20.20;;;;;;;;;;6173700;23;20529;-42
2023/09/07 07:22:44;;;;;;;30.00;21.10;;;;;;;;;;6185213;23;20016;-45
2023/09/07 07:25:13;;;;;;;29.75;20.90;;;;;;;;;;6170917;23;20013;-45
2023/09/07 07:27:41;;;;;;;30.85;21.52;;;;;;;;;;6179901;23;20012;-44
2023/09/07 07:30:09;;;;;;;31.17;21.42;;;;;;;;;;6192980;23;20017;-46
2023/09/07 07:32:37;;;;;;;29.30;20.30;;;;;;;;;;6179026;23;20032;-43
2023/09/07 07:35:06;;;;;;;30.30;20.50;;;;;;;;;;6178421;23;20024;-46
2023/09/07 07:37:34;;;;;;;29.90;20.85;;;;;;;;;;6187669;23;20032;-44
2023/09/07 07:40:02;;;;;;;28.42;19.25;;;;;;;;;;6178776;23;20016;-48
2023/09/07 07:42:32;;;;;;;21.88;15.60;;;;;;;;;;6186654;23;20024;-43
2023/09/07 07:45:00;;;;;;;32.60;19.55;;;;;;;;;;6178956;23;20021;-46
2023/09/07 07:47:28;;;;;;;30.13;20.20;;;;;;;;;;6163921;23;20017;-43
2023/09/07 07:49:56;;;;;;;28.98;20.20;;;;;;;;;;6147588;23;20112;-43
2023/09/07 07:52:24;;;;;;;27.60;19.13;;;;;;;;;;6173564;23;20027;-43
2023/09/07 07:54:52;;;;;;;15.63;10.90;;;;;;;;;;6152160;23;20019;-42
2023/09/07 07:57:35;;;;;;;26.48;18.08;;;;;;;;;;6153400;23;20031;-45
2023/09/07 08:00:04;;;;;;;20.70;11.77;;;;;;;;;;6179399;23;20047;-43
2023/09/07 08:02:36;;;;;;;22.00;15.75;;;;;;;;;;6147867;23;20585;-44
2023/09/07 08:05:04;;;;;;;27.50;18.70;;;;;;;;;;6175139;23;20099;-49
2023/09/07 08:07:32;;;;;;;26.60;18.02;;;;;;;;;;6118553;23;20023;-46
2023/09/07 08:10:00;;;;;;;25.23;17.92;;;;;;;;;;6162637;23;20013;-42
2023/09/07 08:12:39;;;;;;;27.57;19.10;;;;;;;;;;6142630;23;20017;-44
2023/09/07 08:15:07;;;;;;;27.55;18.52;;;;;;;;;;6141610;23;20068;-43
2023/09/07 08:17:34;;;;;;;25.55;19.38;;;;;;;;;;6158254;23;20027;-42
2023/09/07 08:20:03;;;;;;;25.80;18.80;;;;;;;;;;6151878;23;20021;-43
2023/09/07 08:22:35;;;;;;;24.38;16.85;;;;;;;;;;6166951;23;20418;-44
2023/09/07 08:25:03;;;;;;;29.20;19.20;;;;;;;;;;6158890;23;20107;-42
2023/09/07 08:27:31;;;;;;;25.85;18.60;;;;;;;;;;6164751;23;20103;-44
2023/09/07 08:30:00;;;;;;;28.80;17.83;;;;;;;;;;6166527;23;20035;-42
2023/09/07 08:32:30;;;;;;;25.20;17.02;;;;;;;;;;6158277;23;20020;-43
2023/09/07 08:35:00;;;;;;;21.13;14.35;;;;;;;;;;6172945;23;20020;-42
2023/09/07 08:37:29;;;;;;;25.80;15.50;;;;;;;;;;6138436;23;20447;-42
2023/09/07 08:39:57;;;;;;;27.27;16.55;;;;;;;;;;6152293;23;20020;-45
2023/09/07 08:42:45;;;;;;;25.73;17.10;;;;;;;;;;6151869;23;20030;-43
2023/09/07 08:45:18;;;;;;;25.48;16.65;;;;;;;;;;6126012;23;20021;-44
2023/09/07 08:47:46;;;;;;;28.25;17.27;;;;;;;;;;6164527;23;20070;-43
2023/09/07 08:50:14;;;;;;;29.47;18.13;;;;;;;;;;6161970;23;20043;-44
2023/09/07 08:52:45;;;;;;;26.58;17.58;;;;;;;;;;6162556;23;20017;-42
2023/09/07 08:55:15;;;;;;;23.00;16.33;;;;;;;;;;6156642;23;20017;-44
2023/09/07 08:57:43;;;;;;;28.20;17.88;;;;;;;;;;6169308;23;20020;-44
2023/09/07 09:00:16;;;;;;;25.70;17.65;;;;;;;;;;6131469;23;20646;-42
2023/09/07 09:02:48;;;;;;;21.63;14.40;;;;;;;;;;6168739;23;20443;-43
2023/09/07 09:05:20;;;;;;;24.23;16.70;;;;;;;;;;6151483;23;20013;-43
2023/09/07 09:07:48;;;;;;;23.52;15.85;;;;;;;;;;6163666;23;20471;-43
2023/09/07 09:10:18;;;;;;;19.52;13.98;;;;;;;;;;6163101;23;20456;-42
2023/09/07 09:12:46;;;;;;;22.67;15.55;;;;;;;;;;6159783;23;20017;-43
2023/09/07 09:15:14;;;;;;;18.67;11.33;;;;;;;;;;6170926;23;20017;-43
2023/09/07 09:17:41;;;;;;;16.38;10.77;;;;;;;;;;6188163;23;20013;-44
2023/09/07 09:20:22;;;;;;;18.52;12.93;;;;;;;;;;6166240;23;20020;-44
2023/09/07 09:22:51;;;;;;;27.35;17.73;;;;;;;;;;6168784;23;20020;-43
2023/09/07 09:25:19;;;;;;;23.55;15.55;;;;;;;;;;6180155;23;20020;-45
2023/09/07 09:27:47;;;;;;;15.90;11.23;;;;;;;;;;6175465;23;20023;-45
2023/09/07 09:30:16;;;;;;;19.70;13.88;;;;;;;;;;6173836;23;20020;-43
2023/09/07 09:32:44;;;;;;;20.10;14.70;;;;;;;;;;6171202;23;20017;-46
2023/09/07 09:35:12;;;;;;;17.88;10.98;;;;;;;;;;6183007;23;20081;-44
2023/09/07 09:37:48;;;;;;;13.75;9.27;;;;;;;;;;6178103;23;20017;-42
2023/09/07 09:40:27;;;;;;;20.97;12.93;;;;;;;;;;6173295;23;20016;-45
2023/09/07 09:42:55;;;;;;;25.75;15.82;;;;;;;;;;6168487;23;20063;-44
2023/09/07 09:45:23;;;;;;;26.02;16.65;;;;;;;;;;6185708;23;20017;-43
2023/09/07 09:47:51;;;;;;;19.17;13.43;;;;;;;;;;6143543;23;20413;-44
2023/09/07 09:50:19;;;;;;;26.83;15.07;;;;;;;;;;6188868;23;20016;-43
2023/09/07 09:52:49;;;;;;;20.73;12.47;;;;;;;;;;6157552;23;20636;-42
2023/09/07 09:55:20;;;;;;;19.25;12.27;;;;;;;;;;6185028;23;20443;-42
2023/09/07 09:57:49;;;;;;;19.95;12.90;;;;;;;;;;6178650;23;20104;-43
2023/09/07 10:00:25;;;;;;;18.33;13.23;;;;;;;;;;6171212;23;20024;-43
2023/09/07 10:03:01;;;;;;;20.13;13.77;;;;;;;;;;6183509;23;20017;-42
2023/09/07 10:05:31;;;;;;;20.23;12.97;;;;;;;;;;6183179;23;20023;-42
2023/09/07 10:08:09;;;;;;;18.25;13.02;;;;;;;;;;6180566;23;20013;-43
2023/09/07 10:10:37;;;;;;;19.80;13.10;;;;;;;;;;6180409;23;20021;-43
2023/09/07 10:13:06;;;;;;;19.98;13.13;;;;;;;;;;6164010;23;20028;-43
2023/09/07 10:15:35;;;;;;;19.23;12.82;;;;;;;;;;6185702;23;20020;-44
2023/09/07 10:18:12;;;;;;;20.27;14.83;;;;;;;;;;6182860;23;20020;-43
2023/09/07 10:20:53;;;;;;;13.80;8.70;;;;;;;;;;6178332;23;20028;-44
2023/09/07 10:23:23;;;;;;;19.48;13.32;;;;;;;;;;6184108;23;20016;-42
2023/09/07 10:25:52;;;;;;;22.00;13.48;;;;;;;;;;6170014;23;20021;-44
2023/09/07 10:28:20;;;;;;;17.27;12.52;;;;;;;;;;6176051;23;20027;-43
2023/09/07 10:30:58;;;;;;;19.30;12.43;;;;;;;;;;6175107;23;20024;-42
2023/09/07 10:33:26;;;;;;;23.92;14.25;;;;;;;;;;6183046;23;20012;-45
2023/09/07 10:35:54;;;;;;;9.27;6.05;;;;;;;;;;6176640;23;20170;-45
2023/09/07 10:38:23;;;;;;;19.35;11.15;;;;;;;;;;6174151;23;20023;-42
2023/09/07 10:40:57;;;;;;;15.68;10.98;;;;;;;;;;6188860;23;20641;-43
2023/09/07 10:43:25;;;;;;;15.10;9.50;;;;;;;;;;6176434;23;20475;-43
2023/09/07 10:45:56;;;;;;;10.00;6.47;;;;;;;;;;6182015;23;20044;-42
2023/09/07 10:48:25;;;;;;;6.55;3.95;;;;;;;;;;6184036;23;20059;-44
2023/09/07 10:50:54;;;;;;;16.83;12.30;;;;;;;;;;6164940;23;20297;-44
2023/09/07 10:53:30;;;;;;;12.20;5.65;;;;;;;;;;6190161;23;20019;-46
2023/09/07 10:56:00;;;;;;;9.17;5.30;;;;;;;;;;6170173;23;20021;-42
2023/09/07 10:58:28;;;;;;;7.28;3.55;;;;;;;;;;6181205;23;20480;-43
2023/09/07 11:00:58;;;;;;;17.15;10.82;;;;;;;;;;6181677;23;20062;-46
2023/09/07 11:03:28;;;;;;;8.10;4.57;;;;;;;;;;6166599;23;20032;-46
2023/09/07 11:06:00;;;;;;;6.22;3.15;;;;;;;;;;6185175;23;20503;-44
2023/09/07 11:08:30;;;;;;;19.00;12.27;;;;;;;;;;6180502;23;20754;-46
2023/09/07 11:10:58;;;;;;;19.65;12.00;;;;;;;;;;6170316;23;20442;-43
2023/09/07 11:13:26;;;;;;;15.65;11.10;;;;;;;;;;6183689;23;20012;-44
2023/09/07 11:15:54;;;;;;;18.25;9.60;;;;;;;;;;6168478;23;20434;-44
2023/09/07 11:18:22;;;;;;;15.32;9.95;;;;;;;;;;6185871;23;20123;-43
2023/09/07 11:20:51;;;;;;;10.83;6.20;;;;;;;;;;6176843;23;20032;-44
2023/09/07 11:23:21;;;;;;;13.68;9.23;;;;;;;;;;6175109;23;20027;-44
2023/09/07 11:25:50;;;;;;;13.65;7.90;;;;;;;;;;6177003;23;20071;-43
2023/09/07 11:28:22;;;;;;;7.47;4.65;;;;;;;;;;6175524;23;20090;-44
2023/09/07 11:30:51;;;;;;;11.02;7.15;;;;;;;;;;6163238;23;20016;-43
2023/09/07 11:33:18;;;;;;;9.40;5.53;;;;;;;;;;6181297;23;20383;-47
2023/09/07 11:35:46;;;;;;;12.20;8.00;;;;;;;;;;6182819;23;20020;-46
2023/09/07 11:38:15;;;;;;;9.90;6.40;;;;;;;;;;6171078;23;20634;-46
2023/09/07 11:40:44;;;;;;;7.32;4.93;;;;;;;;;;6178913;23;20071;-43
2023/09/07 11:43:13;;;;;;;5.15;3.20;;;;;;;;;;6175127;23;20036;-44
2023/09/07 11:45:41;;;;;;;7.07;3.37;;;;;;;;;;6182778;23;20016;-44
2023/09/07 11:48:10;;;;;;;6.28;3.38;;;;;;;;;;6173488;23;20027;-44
2023/09/07 11:50:38;;;;;;;7.35;4.32;;;;;;;;;;6179788;23;20038;-44
2023/09/07 11:53:06;;;;;;;7.95;4.13;;;;;;;;;;6172772;23;20066;-43
2023/09/07 11:55:34;;;;;;;8.10;4.95;;;;;;;;;;6180077;23;20020;-43
2023/09/07 11:58:02;;;;;;;6.57;3.70;;;;;;;;;;6176971;23;20352;-43
2023/09/07 12:00:31;;;;;;;13.60;7.30;;;;;;;;;;6180340;23;20436;-45
2023/09/07 12:03:00;;;;;;;11.32;6.85;;;;;;;;;;6168610;23;20431;-44
2023/09/07 12:05:28;;;;;;;8.30;4.80;;;;;;;;;;6188213;23;20503;-43
2023/09/07 12:07:56;;;;;;;12.77;8.15;;;;;;;;;;6148931;23;20108;-46
2023/09/07 12:10:24;;;;;;;5.67;3.27;;;;;;;;;;6169806;23;20095;-44
2023/09/07 12:12:52;;;;;;;10.85;5.15;;;;;;;;;;6159768;23;20607;-44
2023/09/07 12:15:19;;;;;;;12.23;7.13;;;;;;;;;;6171278;23;20020;-43
2023/09/07 12:17:54;;;;;;;11.27;6.30;;;;;;;;;;6157723;23;20020;-44
2023/09/07 12:20:25;;;;;;;7.03;4.05;;;;;;;;;;6169993;23;20071;-44
2023/09/07 12:22:53;;;;;;;9.47;6.07;;;;;;;;;;6157492;23;20020;-45
2023/09/07 12:25:20;;;;;;;5.78;3.08;;;;;;;;;;6166243;23;20352;-43
2023/09/07 12:27:50;;;;;;;7.10;4.28;;;;;;;;;;6153454;23;20351;-45
2023/09/07 12:30:23;;;;;;;8.25;4.22;;;;;;;;;;6165142;23;20024;-44
2023/09/07 12:33:08;;;;;;;10.40;5.82;;;;;;;;;;6165674;23;20024;-45
2023/09/07 12:35:36;;;;;;;7.30;3.40;;;;;;;;;;6152832;23;20067;-43
2023/09/07 12:38:04;;;;;;;7.57;4.55;;;;;;;;;;6168334;23;20036;-45
2023/09/07 12:40:33;;;;;;;6.50;3.40;;;;;;;;;;6159654;23;20021;-44
2023/09/07 12:43:03;;;;;;;7.88;4.72;;;;;;;;;;6158273;23;20083;-42
2023/09/07 12:45:31;;;;;;;8.07;5.32;;;;;;;;;;6094845;23;20423;-46
2023/09/07 12:48:00;;;;;;;5.67;3.23;;;;;;;;;;6141084;23;20012;-43
2023/09/07 12:50:30;;;;;;;7.35;2.72;;;;;;;;;;6162990;23;20349;-43
2023/09/07 12:52:58;;;;;;;8.07;4.82;;;;;;;;;;6126633;23;20020;-43
2023/09/07 12:55:25;;;;;;;8.10;4.80;;;;;;;;;;6150460;23;20017;-44
2023/09/07 12:57:53;;;;;;;7.95;4.43;;;;;;;;;;6159288;23;20028;-46
2023/09/07 13:00:21;;;;;;;7.60;4.67;;;;;;;;;;6165361;23;20351;-45
2023/09/07 13:02:48;;;;;;;5.38;2.72;;;;;;;;;;6167850;23;20016;-45
2023/09/07 13:05:16;;;;;;;7.93;5.00;;;;;;;;;;6160192;23;20044;-44
2023/09/07 13:07:46;;;;;;;7.32;4.53;;;;;;;;;;6166897;23;20043;-45
2023/09/07 13:10:14;;;;;;;4.07;2.10;;;;;;;;;;6139714;23;20569;-43
2023/09/07 13:12:44;;;;;;;7.67;3.63;;;;;;;;;;6147564;23;20028;-45
2023/09/07 13:15:12;;;;;;;8.50;3.38;;;;;;;;;;6145996;23;20028;-44
2023/09/07 13:17:40;;;;;;;5.15;2.47;;;;;;;;;;6139291;23;20017;-45
2023/09/07 13:20:08;;;;;;;4.85;2.75;;;;;;;;;;6151203;23;20040;-45
2023/09/07 13:22:37;;;;;;;4.57;2.35;;;;;;;;;;6133169;23;20342;-43
2023/09/07 13:25:08;;;;;;;7.03;2.93;;;;;;;;;;6160884;23;20052;-43
2023/09/07 13:27:36;;;;;;;6.55;3.58;;;;;;;;;;6149441;23;20456;-46
2023/09/07 13:30:04;;;;;;;5.35;2.88;;;;;;;;;;6112769;23;20016;-43
2023/09/07 13:32:32;;;;;;;6.25;3.65;;;;;;;;;;6155230;23;20020;-44
2023/09/07 13:35:00;;;;;;;5.97;3.13;;;;;;;;;;6168235;23;20023;-44
2023/09/07 13:37:28;;;;;;;5.70;2.93;;;;;;;;;;6169085;23;20017;-44
2023/09/07 13:39:58;;;;;;;5.82;3.30;;;;;;;;;;6166020;23;20016;-44
2023/09/07 13:42:28;;;;;;;5.90;2.42;;;;;;;;;;6169295;23;20017;-43
2023/09/07 13:44:56;;;;;;;5.28;3.10;;;;;;;;;;6162015;23;20325;-43
2023/09/07 13:47:26;;;;;;;6.55;3.25;;;;;;;;;;6167922;23;20044;-46
2023/09/07 13:49:53;;;;;;;7.43;3.07;;;;;;;;;;6158525;23;20020;-42
2023/09/07 13:52:22;;;;;;;5.80;2.72;;;;;;;;;;6169215;23;20046;-44
2023/09/07 13:54:50;;;;;;;5.60;2.58;;;;;;;;;;6162185;23;20021;-44
2023/09/07 13:57:17;;;;;;;8.07;3.35;;;;;;;;;;6166486;23;20095;-42
2023/09/07 13:59:47;;;;;;;6.20;2.90;;;;;;;;;;6140793;23;20040;-42
2023/09/07 14:02:15;;;;;;;7.60;4.17;;;;;;;;;;6163953;23;20424;-43
2023/09/07 14:04:43;;;;;;;7.00;3.55;;;;;;;;;;6159889;23;20020;-47
2023/09/07 14:07:14;;;;;;;7.07;3.38;;;;;;;;;;6167365;23;20043;-42
2023/09/07 14:09:43;;;;;;;6.65;3.15;;;;;;;;;;6164883;23;20028;-45
2023/09/07 14:12:12;;;;;;;5.50;3.25;;;;;;;;;;6163280;23;20017;-43
2023/09/07 14:14:40;;;;;;;6.20;3.60;;;;;;;;;;6163129;23;20047;-43
2023/09/07 14:17:11;;;;;;;6.82;3.10;;;;;;;;;;6169500;23;20054;-45
2023/09/07 14:19:39;;;;;;;4.97;2.80;;;;;;;;;;6164945;23;20020;-42
2023/09/07 14:22:06;;;;;;;6.15;3.70;;;;;;;;;;6171030;23;20052;-42
2023/09/07 14:24:34;;;;;;;5.47;3.30;;;;;;;;;;6164554;23;20474;-42
2023/09/07 14:27:02;;;;;;;8.07;3.60;;;;;;;;;;6175821;23;20448;-42
2023/09/07 14:29:30;;;;;;;6.35;2.75;;;;;;;;;;6157275;23;20017;-44
2023/09/07 14:31:58;;;;;;;5.10;2.85;;;;;;;;;;6171141;23;20021;-42
2023/09/07 14:34:27;;;;;;;5.80;3.30;;;;;;;;;;6170773;23;20024;-43